Time;durP1;ratioP1;P1;durP2;ratioP2;P2;SDS_P1;SDS_P2;PMS_P1;PMS_P2;Temp;Humidity;BMP_temperature;BMP_pressure;BME280_temperature;BME280_humidity;BME280_pressure;Samples;Min_cycle;Max_cycle;Signal;HPM_P1;HPM_P2
2023/12/07 00:02:17;;;;;;;16.17;9.32;;;10.00;99.90;;;;;;5204095;28;20079;-75
2023/12/07 00:04:48;;;;;;;15.25;12.25;;;9.70;99.90;;;;;;5203967;28;20037;-73
2023/12/07 00:07:18;;;;;;;15.40;12.00;;;9.70;99.90;;;;;;5203954;28;20567;-73
2023/12/07 00:09:49;;;;;;;14.05;10.48;;;9.80;99.90;;;;;;5203832;28;20492;-73
2023/12/07 00:12:20;;;;;;;17.95;10.85;;;9.70;99.90;;;;;;5202850;28;20042;-77
2023/12/07 00:14:51;;;;;;;10.52;9.55;;;9.80;99.90;;;;;;5203975;28;20030;-72
2023/12/07 00:17:22;;;;;;;9.95;9.02;;;9.70;99.90;;;;;;5207514;28;20022;-72
2023/12/07 00:19:53;;;;;;;14.65;9.15;;;9.80;99.90;;;;;;5208934;28;20037;-73
2023/12/07 00:22:25;;;;;;;10.20;9.20;;;9.80;99.90;;;;;;5208829;28;20013;-72
2023/12/07 00:24:56;;;;;;;10.20;8.93;;;9.90;99.90;;;;;;5208774;28;20057;-73
2023/12/07 00:27:27;;;;;;;12.60;9.57;;;9.90;99.90;;;;;;5208638;28;20483;-79
2023/12/07 00:29:58;;;;;;;10.45;9.40;;;9.80;99.90;;;;;;5208657;28;20045;-73
2023/12/07 00:32:29;;;;;;;13.45;9.40;;;9.90;99.90;;;;;;5208818;28;20028;-73
2023/12/07 00:35:00;;;;;;;15.88;8.73;;;9.80;99.90;;;;;;5208562;28;20029;-73
2023/12/07 00:37:31;;;;;;;10.50;9.20;;;9.80;99.90;;;;;;5207440;28;20491;-73
2023/12/07 00:40:03;;;;;;;16.42;9.80;;;9.80;99.90;;;;;;5648654;23;20053;-72
2023/12/07 00:42:34;;;;;;;14.43;8.98;;;9.80;99.90;;;;;;5208423;28;20030;-78
2023/12/07 00:45:05;;;;;;;14.57;9.23;;;9.80;99.90;;;;;;5208421;28;20082;-74
2023/12/07 00:47:36;;;;;;;14.07;8.68;;;9.80;99.90;;;;;;5207981;28;20071;-73
2023/12/07 00:50:08;;;;;;;19.40;8.95;;;9.80;99.90;;;;;;5206932;28;20064;-73
2023/12/07 00:52:39;;;;;;;12.25;8.05;;;9.90;99.90;;;;;;5208225;28;20029;-74
2023/12/07 00:55:10;;;;;;;12.80;8.50;;;9.80;99.90;;;;;;5206888;28;20034;-76
2023/12/07 00:57:41;;;;;;;16.77;8.68;;;9.90;99.90;;;;;;5206820;28;20434;-73
2023/12/07 01:00:13;;;;;;;17.85;8.88;;;9.80;99.90;;;;;;5205442;28;20083;-73
2023/12/07 01:02:43;;;;;;;10.63;8.48;;;9.90;99.90;;;;;;5206632;28;20504;-73
2023/12/07 01:05:14;;;;;;;13.00;8.38;;;9.90;99.90;;;;;;5206839;28;20079;-73
2023/12/07 01:07:45;;;;;;;8.88;7.93;;;9.90;99.90;;;;;;5205520;28;20037;-73
2023/12/07 01:10:16;;;;;;;13.05;7.88;;;9.90;99.90;;;;;;5207518;28;20079;-72
2023/12/07 01:12:47;;;;;;;12.40;7.85;;;10.00;99.90;;;;;;5206476;28;20056;-78
2023/12/07 01:15:18;;;;;;;8.27;7.47;;;9.90;99.90;;;;;;5207799;28;20056;-73
2023/12/07 01:17:49;;;;;;;9.80;8.27;;;10.00;99.90;;;;;;5207708;28;20116;-76
2023/12/07 01:20:20;;;;;;;13.68;9.45;;;10.00;99.90;;;;;;5207904;28;20075;-73
2023/12/07 01:22:51;;;;;;;9.85;8.15;;;10.00;99.90;;;;;;5206456;28;20045;-73
2023/12/07 01:25:22;;;;;;;10.30;7.88;;;10.00;99.90;;;;;;5207524;28;20029;-73
2023/12/07 01:27:53;;;;;;;10.98;8.02;;;10.00;99.90;;;;;;5207504;28;20036;-73
2023/12/07 01:30:24;;;;;;;10.52;7.93;;;9.90;99.90;;;;;;5207192;28;20041;-73
2023/12/07 01:32:55;;;;;;;8.73;7.90;;;9.90;99.90;;;;;;5207333;28;20464;-73
2023/12/07 01:35:26;;;;;;;8.40;7.60;;;10.00;99.90;;;;;;5207434;28;20021;-73
2023/12/07 01:37:57;;;;;;;12.35;8.65;;;10.00;99.90;;;;;;5207081;28;20376;-72
2023/12/07 01:40:28;;;;;;;10.73;9.48;;;10.00;99.90;;;;;;5207014;28;20042;-79
2023/12/07 01:43:00;;;;;;;11.02;9.15;;;10.00;99.90;;;;;;5207297;28;20026;-73
2023/12/07 01:45:30;;;;;;;12.55;11.32;;;10.00;99.90;;;;;;5207116;28;20100;-73
2023/12/07 01:48:01;;;;;;;11.75;10.55;;;10.00;99.90;;;;;;5206390;28;20117;-73
2023/12/07 01:50:33;;;;;;;15.93;9.10;;;10.00;99.90;;;;;;5206128;28;20034;-73
2023/12/07 01:53:05;;;;;;;11.80;9.65;;;10.00;99.90;;;;;;5205429;28;20136;-75
2023/12/07 01:55:37;;;;;;;14.63;10.18;;;10.00;99.90;;;;;;5205848;28;20018;-73
2023/12/07 01:58:08;;;;;;;10.02;9.00;;;9.90;99.90;;;;;;5204352;28;20354;-72
2023/12/07 02:00:39;;;;;;;13.48;9.88;;;10.00;99.90;;;;;;5205580;28;20033;-73
2023/12/07 02:03:10;;;;;;;11.73;10.52;;;10.00;99.90;;;;;;5204293;28;20396;-73
2023/12/07 02:05:43;;;;;;;16.35;11.88;;;10.00;99.90;;;;;;5205052;28;20014;-74
2023/12/07 02:08:14;;;;;;;14.52;11.00;;;10.00;99.90;;;;;;5206872;28;20033;-72
2023/12/07 02:10:46;;;;;;;13.07;10.13;;;10.10;99.90;;;;;;5206507;28;20041;-74
2023/12/07 02:13:17;;;;;;;13.52;9.75;;;10.20;99.90;;;;;;5206844;28;20037;-73
2023/12/07 02:15:50;;;;;;;13.70;9.02;;;10.10;99.90;;;;;;5205308;28;20066;-73
2023/12/07 02:18:42;;;;;;;13.75;10.52;;;10.10;99.90;;;;;;5206625;28;20076;-75
2023/12/07 02:21:16;;;;;;;16.38;10.55;;;10.00;99.90;;;;;;5205396;28;20484;-72
2023/12/07 02:23:51;;;;;;;15.05;11.23;;;10.00;99.90;;;;;;5206492;28;20021;-73
2023/12/07 02:26:24;;;;;;;12.60;9.65;;;10.00;99.90;;;;;;5206393;28;20026;-73
2023/12/07 02:28:55;;;;;;;15.20;10.43;;;9.90;99.90;;;;;;5206351;28;20037;-74
2023/12/07 02:31:26;;;;;;;14.90;9.63;;;10.00;99.90;;;;;;5206397;28;20038;-73
2023/12/07 02:33:57;;;;;;;12.75;10.35;;;10.00;99.90;;;;;;5204652;28;20040;-74
2023/12/07 02:36:29;;;;;;;11.25;10.15;;;10.00;99.90;;;;;;5204965;28;20427;-73
2023/12/07 02:39:03;;;;;;;13.20;9.90;;;10.10;99.90;;;;;;5205560;28;20024;-72
2023/12/07 02:41:35;;;;;;;11.77;10.32;;;10.00;99.90;;;;;;5206017;28;20041;-73
2023/12/07 02:44:07;;;;;;;19.55;11.07;;;10.00;99.90;;;;;;5204290;28;20029;-74
2023/12/07 02:46:38;;;;;;;15.43;10.93;;;10.00;99.90;;;;;;5205444;28;20075;-73
2023/12/07 02:49:09;;;;;;;21.23;11.77;;;10.00;99.90;;;;;;5203524;28;20033;-73
2023/12/07 02:51:40;;;;;;;22.17;14.57;;;10.10;99.90;;;;;;5204711;28;20499;-72
2023/12/07 02:54:11;;;;;;;15.32;11.70;;;10.00;99.90;;;;;;5204536;28;20029;-73
2023/12/07 02:56:41;;;;;;;16.02;12.40;;;10.00;99.90;;;;;;5203383;28;20115;-73
2023/12/07 02:59:12;;;;;;;15.23;12.30;;;10.00;99.90;;;;;;5204368;28;20021;-74
2023/12/07 03:01:43;;;;;;;28.30;18.05;;;10.10;99.90;;;;;;5205073;28;20030;-78
2023/12/07 03:04:14;;;;;;;31.88;18.45;;;9.90;99.90;;;;;;5205848;28;20108;-78
2023/12/07 03:06:45;;;;;;;25.83;17.70;;;10.00;99.90;;;;;;5204284;28;20468;-75
2023/12/07 03:09:16;;;;;;;37.22;24.23;;;10.00;99.90;;;;;;5205453;28;20693;-72
2023/12/07 03:11:46;;;;;;;40.72;23.80;;;10.00;99.90;;;;;;5204612;28;20381;-79
2023/12/07 03:14:19;;;;;;;47.30;28.08;;;10.00;99.90;;;;;;5205818;28;20151;-73
2023/12/07 03:16:50;;;;;;;48.17;27.42;;;10.00;99.90;;;;;;5205851;28;20029;-73
2023/12/07 03:19:21;;;;;;;51.15;27.98;;;10.00;99.90;;;;;;5205773;28;20034;-73
2023/12/07 03:21:52;;;;;;;52.20;29.23;;;10.10;99.90;;;;;;5205620;28;20029;-78
2023/12/07 03:24:23;;;;;;;52.33;29.20;;;10.00;99.90;;;;;;5205884;28;20052;-72
2023/12/07 03:26:54;;;;;;;57.95;29.88;;;9.90;99.90;;;;;;5205586;28;20459;-72
2023/12/07 03:29:25;;;;;;;52.95;29.75;;;10.00;99.90;;;;;;5204153;28;20040;-73
2023/12/07 03:31:55;;;;;;;49.95;29.08;;;10.00;99.90;;;;;;5204218;28;20051;-73
2023/12/07 03:34:26;;;;;;;61.10;30.92;;;10.00;99.90;;;;;;5205322;28;20026;-73
2023/12/07 03:36:57;;;;;;;55.35;31.45;;;10.00;99.90;;;;;;5205869;28;20457;-72
2023/12/07 03:39:29;;;;;;;56.55;30.38;;;10.00;99.90;;;;;;5203068;28;20407;-73
2023/12/07 03:42:00;;;;;;;54.60;31.02;;;10.00;99.90;;;;;;5205251;28;20056;-73
2023/12/07 03:44:31;;;;;;;54.55;30.00;;;10.10;99.90;;;;;;5202957;28;20025;-73
2023/12/07 03:47:02;;;;;;;54.97;30.75;;;10.10;99.90;;;;;;5204288;28;20033;-73
2023/12/07 03:49:33;;;;;;;51.42;29.58;;;10.10;99.90;;;;;;5203840;28;20045;-73
2023/12/07 03:52:04;;;;;;;48.60;28.85;;;10.10;99.90;;;;;;5205973;28;20030;-74
2023/12/07 03:54:35;;;;;;;51.97;29.85;;;10.10;99.90;;;;;;5207675;28;20657;-73
2023/12/07 03:57:06;;;;;;;55.70;29.27;;;10.10;99.90;;;;;;5208190;28;20052;-78
2023/12/07 03:59:37;;;;;;;64.55;31.90;;;10.10;99.90;;;;;;5209226;28;20022;-73
2023/12/07 04:02:08;;;;;;;49.85;28.80;;;10.20;99.90;;;;;;5209369;28;20021;-73
2023/12/07 04:04:39;;;;;;;54.38;29.33;;;10.20;99.90;;;;;;5209208;28;20029;-73
2023/12/07 04:07:10;;;;;;;66.28;33.15;;;10.20;99.90;;;;;;5209176;28;20026;-74
2023/12/07 04:09:40;;;;;;;62.53;33.55;;;10.10;99.90;;;;;;5208957;28;20396;-73
2023/12/07 04:12:11;;;;;;;59.97;33.63;;;10.10;99.90;;;;;;5209046;28;20029;-72
2023/12/07 04:14:42;;;;;;;60.80;34.90;;;10.00;99.90;;;;;;5209162;28;20057;-73
2023/12/07 04:17:13;;;;;;;68.93;35.28;;;10.10;99.90;;;;;;5208840;28;20055;-73
2023/12/07 04:19:44;;;;;;;59.72;33.42;;;10.10;99.90;;;;;;5208910;28;20045;-73
2023/12/07 04:22:15;;;;;;;58.70;32.00;;;10.20;99.90;;;;;;5209031;28;20057;-73
2023/12/07 04:24:46;;;;;;;58.47;32.53;;;10.10;99.90;;;;;;5208820;28;20096;-73
2023/12/07 04:27:17;;;;;;;61.13;33.03;;;10.10;99.90;;;;;;5208710;28;20025;-73
2023/12/07 04:29:47;;;;;;;56.45;31.65;;;10.20;99.90;;;;;;5208592;28;20040;-79
2023/12/07 04:32:18;;;;;;;55.80;30.52;;;10.20;99.90;;;;;;5208756;28;20075;-73
2023/12/07 04:34:49;;;;;;;52.47;30.80;;;10.20;99.90;;;;;;5208450;28;20033;-73
2023/12/07 04:37:20;;;;;;;56.63;29.95;;;10.10;99.90;;;;;;5208784;28;20033;-73
2023/12/07 04:39:51;;;;;;;50.67;28.08;;;10.20;99.90;;;;;;5207007;28;20048;-77
2023/12/07 04:42:22;;;;;;;51.80;29.17;;;10.20;99.90;;;;;;5207075;28;20029;-73
2023/12/07 04:44:53;;;;;;;55.13;28.42;;;10.10;99.90;;;;;;5207005;28;20034;-73
2023/12/07 04:47:24;;;;;;;54.67;30.88;;;10.30;99.90;;;;;;5207071;28;20036;-73
2023/12/07 04:49:55;;;;;;;56.35;29.63;;;10.20;99.90;;;;;;5206921;28;20115;-73
2023/12/07 04:52:26;;;;;;;55.75;28.63;;;10.10;99.90;;;;;;5207024;28;20088;-74
2023/12/07 04:54:56;;;;;;;51.70;29.52;;;10.10;99.90;;;;;;5207867;28;20638;-72
2023/12/07 04:57:28;;;;;;;54.35;29.52;;;10.10;99.90;;;;;;5208094;28;20021;-73
2023/12/07 04:59:58;;;;;;;49.70;28.98;;;10.20;99.90;;;;;;5208245;28;20030;-72
2023/12/07 05:02:29;;;;;;;49.60;29.02;;;10.20;99.90;;;;;;5207808;28;20376;-73
2023/12/07 05:05:00;;;;;;;52.72;31.30;;;10.10;99.90;;;;;;5207949;28;20104;-72
2023/12/07 05:07:31;;;;;;;60.17;31.45;;;10.00;99.90;;;;;;5207995;28;20026;-72
2023/12/07 05:10:02;;;;;;;50.80;30.30;;;10.10;99.90;;;;;;5207556;28;20044;-72
2023/12/07 05:12:33;;;;;;;53.08;31.17;;;10.10;99.90;;;;;;5207687;28;20022;-78
2023/12/07 05:15:06;;;;;;;55.53;29.75;;;10.10;99.90;;;;;;5207862;28;20030;-77
2023/12/07 05:17:37;;;;;;;59.55;30.13;;;10.10;99.90;;;;;;5207883;28;20485;-73
2023/12/07 05:20:08;;;;;;;53.78;30.13;;;10.10;99.90;;;;;;5207713;28;20041;-73
2023/12/07 05:22:39;;;;;;;51.08;29.88;;;10.20;99.90;;;;;;5207595;28;20107;-72
2023/12/07 05:25:10;;;;;;;51.10;29.88;;;10.10;99.90;;;;;;5207584;28;20037;-73
2023/12/07 05:27:41;;;;;;;52.80;30.33;;;10.20;99.90;;;;;;5207590;28;20096;-79
2023/12/07 05:30:15;;;;;;;52.55;28.30;;;10.20;99.90;;;;;;5207557;28;20048;-73
2023/12/07 05:32:46;;;;;;;58.67;30.67;;;10.10;99.90;;;;;;5206691;28;20028;-72
2023/12/07 05:35:17;;;;;;;50.67;29.83;;;10.10;99.90;;;;;;5206902;28;20104;-73
2023/12/07 05:37:48;;;;;;;56.90;31.48;;;10.10;99.90;;;;;;5206066;28;20136;-74
2023/12/07 05:40:19;;;;;;;53.58;28.90;;;10.10;99.90;;;;;;5205709;28;20057;-73
2023/12/07 05:42:51;;;;;;;55.83;30.33;;;10.10;99.90;;;;;;5206192;28;20099;-73
2023/12/07 05:45:22;;;;;;;54.10;30.67;;;10.20;99.90;;;;;;5206037;28;20064;-73
2023/12/07 05:47:52;;;;;;;45.17;26.77;;;10.10;99.90;;;;;;5206222;28;20492;-75
2023/12/07 05:50:23;;;;;;;46.75;26.70;;;10.10;99.90;;;;;;5206514;28;20033;-73
2023/12/07 05:52:55;;;;;;;39.60;25.98;;;10.20;99.90;;;;;;5207293;28;20033;-73
2023/12/07 05:55:26;;;;;;;48.40;27.33;;;10.20;99.90;;;;;;5207085;28;20488;-73
2023/12/07 05:57:57;;;;;;;46.13;27.17;;;10.20;99.90;;;;;;5206961;28;20084;-72
2023/12/07 06:00:28;;;;;;;43.17;27.15;;;10.10;99.90;;;;;;5207008;28;20025;-72
2023/12/07 06:02:59;;;;;;;44.72;25.80;;;10.20;99.90;;;;;;5206935;28;20350;-76
2023/12/07 06:05:30;;;;;;;43.03;24.75;;;10.30;99.90;;;;;;5206902;28;20025;-75
2023/12/07 06:08:00;;;;;;;44.53;25.45;;;10.30;99.90;;;;;;5206817;28;20028;-73
2023/12/07 06:10:31;;;;;;;48.55;27.73;;;10.30;99.90;;;;;;5206463;28;20041;-74
2023/12/07 06:13:03;;;;;;;61.25;37.47;;;10.30;99.90;;;;;;5206634;28;20026;-73
2023/12/07 06:15:34;;;;;;;62.60;38.22;;;10.30;99.90;;;;;;5205788;28;20072;-72
2023/12/07 06:18:05;;;;;;;60.60;33.47;;;10.40;99.90;;;;;;5206545;28;20071;-73
2023/12/07 06:20:36;;;;;;;53.30;31.90;;;10.40;99.90;;;;;;5206442;28;20063;-78
2023/12/07 06:23:07;;;;;;;66.95;36.53;;;10.50;99.90;;;;;;5206588;28;20029;-73
2023/12/07 06:25:38;;;;;;;47.80;29.45;;;10.40;99.90;;;;;;5206507;28;20040;-79
2023/12/07 06:28:09;;;;;;;50.80;32.20;;;10.40;99.90;;;;;;5205509;28;20029;-73
2023/12/07 06:30:40;;;;;;;52.30;31.63;;;10.40;99.90;;;;;;5205821;28;20037;-73
2023/12/07 06:33:11;;;;;;;52.75;31.48;;;10.50;99.90;;;;;;5205029;28;20048;-73
2023/12/07 06:35:42;;;;;;;51.60;31.40;;;10.50;99.90;;;;;;5204922;28;20067;-75
2023/12/07 06:38:13;;;;;;;48.63;29.77;;;10.50;99.90;;;;;;5205089;28;20079;-73
2023/12/07 06:40:43;;;;;;;51.38;30.23;;;10.50;99.90;;;;;;5204687;28;20080;-73
2023/12/07 06:43:14;;;;;;;59.13;31.70;;;10.60;99.90;;;;;;5204897;28;20492;-74
2023/12/07 06:45:45;;;;;;;51.92;29.90;;;10.50;99.90;;;;;;5203704;28;20061;-73
2023/12/07 06:48:16;;;;;;;48.42;30.05;;;10.60;99.90;;;;;;5205997;28;20495;-73
2023/12/07 06:50:47;;;;;;;74.32;45.30;;;10.60;99.90;;;;;;5205935;28;20432;-77
2023/12/07 06:53:18;;;;;;;99.35;64.90;;;10.80;99.90;;;;;;5204829;28;20075;-73
2023/12/07 06:55:49;;;;;;;100.10;66.90;;;10.70;99.90;;;;;;5205920;28;20334;-73
2023/12/07 06:58:20;;;;;;;101.85;63.75;;;10.70;99.90;;;;;;5205957;28;20063;-73
2023/12/07 07:00:51;;;;;;;90.50;61.17;;;10.70;99.90;;;;;;5206033;28;20052;-78
2023/12/07 07:03:22;;;;;;;78.78;51.80;;;10.80;99.90;;;;;;5206170;28;20417;-78
2023/12/07 07:05:56;;;;;;;81.80;51.75;;;10.80;99.90;;;;;;5205938;28;20033;-73
2023/12/07 07:08:27;;;;;;;70.82;48.58;;;10.80;99.90;;;;;;5205820;28;20025;-73
2023/12/07 07:10:58;;;;;;;58.10;40.30;;;10.90;99.90;;;;;;5205452;28;20092;-73
2023/12/07 07:13:29;;;;;;;48.30;32.05;;;10.80;99.90;;;;;;5205643;28;20042;-73
2023/12/07 07:16:00;;;;;;;51.20;33.33;;;10.90;99.90;;;;;;5205746;28;20033;-74
2023/12/07 07:18:31;;;;;;;56.72;35.60;;;11.00;99.90;;;;;;5205586;28;20018;-74
2023/12/07 07:21:04;;;;;;;49.50;30.58;;;11.00;99.90;;;;;;5205528;28;20068;-73
2023/12/07 07:23:35;;;;;;;50.33;30.98;;;10.90;99.90;;;;;;5205208;28;20037;-73
2023/12/07 07:26:06;;;;;;;37.95;24.35;;;11.00;99.90;;;;;;5207461;28;20468;-73
2023/12/07 07:28:37;;;;;;;36.72;21.98;;;11.00;99.90;;;;;;5208621;28;20037;-74
2023/12/07 07:31:08;;;;;;;33.53;20.67;;;11.00;99.90;;;;;;5208293;28;20515;-73
2023/12/07 07:33:39;;;;;;;32.92;21.30;;;10.90;99.90;;;;;;5208428;28;20136;-73
2023/12/07 07:36:11;;;;;;;32.47;19.83;;;10.90;99.90;;;;;;5208454;28;20113;-73
2023/12/07 07:38:43;;;;;;;29.60;19.98;;;10.90;99.90;;;;;;5208162;28;20029;-73
2023/12/07 07:41:14;;;;;;;32.35;20.67;;;10.90;99.90;;;;;;5208207;28;20064;-73
2023/12/07 07:43:45;;;;;;;42.22;27.20;;;11.00;99.90;;;;;;5208199;28;20100;-74
2023/12/07 07:46:16;;;;;;;32.45;24.30;;;10.90;99.90;;;;;;5208262;28;20033;-73
2023/12/07 07:48:47;;;;;;;35.05;22.75;;;10.90;99.90;;;;;;5209197;28;20025;-74
2023/12/07 07:51:18;;;;;;;36.13;25.73;;;10.90;99.90;;;;;;5209525;28;20041;-73
2023/12/07 07:53:49;;;;;;;29.92;21.67;;;10.90;99.90;;;;;;5209323;28;20033;-73
2023/12/07 07:56:20;;;;;;;42.90;32.05;;;11.00;99.90;;;;;;5209487;28;20029;-72
2023/12/07 07:58:51;;;;;;;35.10;23.50;;;10.90;99.90;;;;;;5209139;28;20117;-73
2023/12/07 08:01:22;;;;;;;47.42;31.30;;;10.80;99.90;;;;;;5209387;28;20052;-73
2023/12/07 08:03:53;;;;;;;43.47;25.90;;;10.80;99.90;;;;;;5209138;28;20369;-74
2023/12/07 08:06:23;;;;;;;34.30;23.67;;;10.90;99.90;;;;;;5209270;28;20550;-72
2023/12/07 08:08:54;;;;;;;38.90;24.63;;;10.90;99.90;;;;;;5208899;28;20034;-79
2023/12/07 08:11:25;;;;;;;51.92;32.80;;;10.90;99.90;;;;;;5209112;28;20108;-73
2023/12/07 08:13:56;;;;;;;33.72;23.35;;;10.80;99.90;;;;;;5209044;28;20030;-73
2023/12/07 08:16:27;;;;;;;44.20;27.98;;;10.90;99.90;;;;;;5208999;28;20083;-79
2023/12/07 08:18:58;;;;;;;40.80;24.80;;;10.80;99.90;;;;;;5209095;28;20037;-78
2023/12/07 08:21:29;;;;;;;57.05;38.58;;;10.90;99.90;;;;;;5208113;28;20026;-74
2023/12/07 08:24:00;;;;;;;40.58;25.60;;;11.00;99.90;;;;;;5208149;28;20053;-73
2023/12/07 08:26:31;;;;;;;80.70;52.22;;;11.00;99.90;;;;;;5207445;28;20056;-73
2023/12/07 08:29:02;;;;;;;60.22;40.15;;;10.90;99.90;;;;;;5207385;28;20034;-73
2023/12/07 08:31:33;;;;;;;167.75;84.85;;;11.00;99.90;;;;;;5207491;28;20067;-74
2023/12/07 08:34:04;;;;;;;73.88;40.13;;;11.00;99.90;;;;;;5207307;28;20045;-73
2023/12/07 08:36:35;;;;;;;95.72;53.42;;;11.00;99.90;;;;;;5207080;28;20029;-74
2023/12/07 08:39:09;;;;;;;33.47;22.05;;;11.00;99.90;;;;;;5207189;28;20029;-73
2023/12/07 08:41:40;;;;;;;31.13;22.23;;;11.00;99.90;;;;;;5208286;28;20053;-73
2023/12/07 08:44:11;;;;;;;34.22;22.20;;;11.00;99.90;;;;;;5208420;28;20715;-73
2023/12/07 08:46:44;;;;;;;101.65;60.60;;;11.10;99.90;;;;;;5208278;28;20072;-76
2023/12/07 08:49:15;;;;;;;54.58;36.28;;;11.20;99.90;;;;;;5208261;28;20433;-74
2023/12/07 08:51:46;;;;;;;32.30;22.60;;;11.30;99.90;;;;;;5208200;28;20104;-78
2023/12/07 08:54:17;;;;;;;34.08;22.38;;;11.40;99.90;;;;;;5208266;28;20033;-78
2023/12/07 08:56:48;;;;;;;34.90;24.58;;;11.30;99.90;;;;;;5208242;28;20030;-77
2023/12/07 08:59:19;;;;;;;38.88;24.52;;;11.40;99.90;;;;;;5208012;28;20477;-75
2023/12/07 09:01:50;;;;;;;35.00;25.67;;;11.50;99.90;;;;;;5207901;28;20029;-74
2023/12/07 09:04:21;;;;;;;37.78;25.90;;;11.50;99.90;;;;;;5207940;28;20032;-73
2023/12/07 09:06:51;;;;;;;37.00;26.55;;;11.50;99.90;;;;;;5207974;28;20093;-73
2023/12/07 09:09:23;;;;;;;41.28;25.88;;;11.50;99.90;;;;;;5207830;28;20464;-73
2023/12/07 09:11:54;;;;;;;36.38;27.15;;;11.60;99.90;;;;;;5207664;28;20108;-73
2023/12/07 09:14:26;;;;;;;36.53;28.00;;;11.60;99.90;;;;;;5206361;28;20047;-73
2023/12/07 09:16:57;;;;;;;31.65;24.50;;;11.70;99.90;;;;;;5207353;28;20553;-78
2023/12/07 09:19:28;;;;;;;29.13;23.38;;;11.70;99.90;;;;;;5207408;28;20025;-73
2023/12/07 09:21:59;;;;;;;33.63;25.45;;;11.60;99.90;;;;;;5206356;28;20504;-73
2023/12/07 09:24:29;;;;;;;32.60;24.20;;;11.50;99.90;;;;;;5206537;28;20022;-73
2023/12/07 09:27:00;;;;;;;37.20;26.00;;;11.50;99.90;;;;;;5206340;28;20029;-73
2023/12/07 09:29:31;;;;;;;33.70;25.35;;;11.60;99.90;;;;;;5206331;28;20041;-73
2023/12/07 09:32:03;;;;;;;34.38;25.58;;;11.60;99.90;;;;;;5206316;28;20064;-73
2023/12/07 09:34:34;;;;;;;32.40;22.25;;;11.60;99.90;;;;;;5206602;28;20037;-79
2023/12/07 09:37:09;;;;;;;29.83;22.45;;;11.60;99.90;;;;;;5207485;28;20013;-75
2023/12/07 09:39:40;;;;;;;25.15;16.17;;;11.60;99.90;;;;;;5207170;28;20557;-73
2023/12/07 09:42:11;;;;;;;25.17;17.80;;;11.50;99.90;;;;;;5207494;28;20033;-79
2023/12/07 09:44:42;;;;;;;22.50;16.58;;;11.60;99.90;;;;;;5207198;28;20025;-73
2023/12/07 09:47:13;;;;;;;23.17;16.92;;;11.40;99.90;;;;;;5207367;28;20372;-73
2023/12/07 09:49:45;;;;;;;32.90;20.60;;;11.50;99.90;;;;;;5206150;28;20084;-73
2023/12/07 09:52:16;;;;;;;32.28;21.50;;;11.30;99.90;;;;;;5207092;28;20029;-73
2023/12/07 09:54:49;;;;;;;33.42;21.63;;;11.40;99.90;;;;;;5207049;28;20025;-73
2023/12/07 09:57:21;;;;;;;35.85;24.38;;;11.40;99.90;;;;;;5207255;28;20037;-73
2023/12/07 09:59:51;;;;;;;35.63;23.98;;;11.40;99.90;;;;;;5206831;28;20029;-73
2023/12/07 10:02:23;;;;;;;37.80;25.83;;;11.30;99.90;;;;;;5206956;28;20033;-79
2023/12/07 10:05:13;;;;;;;33.35;23.88;;;11.40;99.90;;;;;;5205657;28;20469;-73
2023/12/07 10:07:49;;;;;;;27.48;19.70;;;11.40;99.90;;;;;;5206683;28;20030;-73
2023/12/07 10:10:20;;;;;;;23.92;18.00;;;11.50;99.90;;;;;;5206471;28;20055;-74
2023/12/07 10:12:57;;;;;;;25.13;17.42;;;11.50;99.90;;;;;;5205820;28;20727;-73
2023/12/07 10:15:28;;;;;;;20.60;12.73;;;11.50;99.90;;;;;;5206541;28;20403;-73
2023/12/07 10:17:59;;;;;;;20.00;15.52;;;11.50;99.90;;;;;;5205367;28;20476;-74
2023/12/07 10:20:30;;;;;;;27.60;17.80;;;11.50;99.90;;;;;;5204057;28;20472;-74
2023/12/07 10:23:09;;;;;;;24.17;16.35;;;11.50;99.90;;;;;;5205272;28;20032;-77
2023/12/07 10:25:42;;;;;;;27.27;16.80;;;11.50;99.90;;;;;;5205430;28;20445;-74
2023/12/07 10:28:16;;;;;;;26.88;18.58;;;11.40;99.90;;;;;;5204389;28;20029;-73
2023/12/07 10:30:47;;;;;;;21.70;15.57;;;11.40;99.90;;;;;;5205689;28;20369;-76
2023/12/07 10:33:20;;;;;;;19.00;15.63;;;11.50;99.90;;;;;;5206337;28;20076;-73
2023/12/07 10:35:50;;;;;;;23.33;16.58;;;11.50;99.90;;;;;;5206485;28;20029;-73
2023/12/07 10:38:21;;;;;;;25.25;20.95;;;11.50;99.90;;;;;;5206198;28;20152;-73
2023/12/07 10:41:06;;;;;;;24.38;21.63;;;11.40;99.90;;;;;;5206109;28;20049;-74
2023/12/07 10:43:37;;;;;;;18.75;12.30;;;11.30;99.90;;;;;;5206329;28;20017;-73
2023/12/07 10:46:09;;;;;;;16.20;11.57;;;11.40;99.90;;;;;;5206130;28;20021;-72
2023/12/07 10:48:42;;;;;;;22.05;18.35;;;11.40;99.90;;;;;;5205917;28;20025;-73
2023/12/07 10:51:23;;;;;;;22.65;17.63;;;11.50;99.90;;;;;;5205960;28;20480;-73
2023/12/07 10:53:56;;;;;;;18.80;14.65;;;11.40;99.90;;;;;;5206110;28;20018;-73
2023/12/07 10:56:39;;;;;;;11.80;10.23;;;11.50;99.90;;;;;;5206001;28;20037;-73
2023/12/07 10:59:12;;;;;;;13.38;10.02;;;11.50;99.90;;;;;;5206034;28;20032;-73
2023/12/07 11:01:44;;;;;;;13.60;12.27;;;11.50;99.90;;;;;;5205540;28;20092;-74
2023/12/07 11:04:16;;;;;;;11.70;8.00;;;11.40;99.90;;;;;;5206038;28;20452;-73
2023/12/07 11:06:52;;;;;;;9.70;8.10;;;11.40;99.90;;;;;;5205795;28;20265;-76
2023/12/07 11:09:29;;;;;;;10.77;9.60;;;11.50;99.90;;;;;;5204795;28;20045;-73
2023/12/07 11:12:45;;;;;;;10.32;8.68;;;11.40;99.90;;;;;;5205960;28;20052;-75
2023/12/07 11:15:17;;;;;;;12.07;9.18;;;11.50;99.90;;;;;;5203003;28;20033;-73
2023/12/07 11:17:55;;;;;;;13.18;10.35;;;11.40;99.90;;;;;;5204413;28;20030;-73
2023/12/07 11:20:44;;;;;;;8.82;8.02;;;11.40;99.90;;;;;;5204473;28;20040;-76
2023/12/07 11:23:20;;;;;;;13.13;8.82;;;11.40;99.90;;;;;;5204848;28;20053;-73
2023/12/07 11:25:52;;;;;;;9.77;8.77;;;11.30;99.90;;;;;;5205208;28;20423;-73
2023/12/07 11:28:38;;;;;;;13.52;10.68;;;11.40;99.90;;;;;;5205583;28;20480;-79
2023/12/07 11:31:09;;;;;;;14.07;11.48;;;11.40;99.90;;;;;;5205987;28;20376;-73
2023/12/07 11:33:42;;;;;;;18.33;13.45;;;11.30;99.90;;;;;;5205809;28;20124;-77
2023/12/07 11:36:13;;;;;;;12.55;11.25;;;11.40;99.90;;;;;;5205537;28;20018;-79
2023/12/07 11:39:07;;;;;;;12.68;9.35;;;11.40;99.90;;;;;;5205541;28;20064;-73
2023/12/07 11:41:44;;;;;;;9.18;7.75;;;11.30;99.90;;;;;;5198835;28;20046;-73
2023/12/07 11:44:17;;;;;;;12.27;8.52;;;11.30;99.90;;;;;;5205634;28;20037;-73
2023/12/07 11:46:48;;;;;;;11.73;9.27;;;11.40;99.90;;;;;;5204278;28;20105;-73
2023/12/07 11:49:21;;;;;;;13.20;9.85;;;11.40;99.90;;;;;;5205325;28;20586;-74
2023/12/07 11:51:52;;;;;;;10.38;9.38;;;11.40;99.90;;;;;;5204035;28;20109;-79
2023/12/07 11:54:23;;;;;;;10.82;9.73;;;11.40;99.90;;;;;;5205517;28;20151;-73
2023/12/07 11:56:57;;;;;;;9.93;9.05;;;11.40;99.90;;;;;;5205295;28;20053;-73
2023/12/07 11:59:29;;;;;;;8.80;7.70;;;11.40;99.90;;;;;;5205264;28;20025;-73
2023/12/07 12:02:02;;;;;;;9.82;8.65;;;11.40;99.90;;;;;;5205343;28;20030;-73
2023/12/07 12:04:33;;;;;;;10.57;8.45;;;11.40;99.90;;;;;;5205022;28;20616;-73
2023/12/07 12:07:04;;;;;;;9.13;8.23;;;11.50;99.90;;;;;;5204977;28;20096;-79
2023/12/07 12:09:35;;;;;;;12.63;10.40;;;11.40;99.90;;;;;;5203972;28;20553;-73
2023/12/07 12:12:06;;;;;;;11.18;10.07;;;11.40;99.90;;;;;;5204306;28;20034;-77
2023/12/07 12:14:37;;;;;;;11.82;8.85;;;11.40;99.90;;;;;;5207745;28;20580;-73
2023/12/07 12:17:08;;;;;;;13.80;10.45;;;11.40;99.90;;;;;;5207890;28;20085;-73
2023/12/07 12:19:39;;;;;;;12.52;11.35;;;11.40;99.90;;;;;;5207731;28;20053;-74
2023/12/07 12:22:10;;;;;;;10.05;8.98;;;11.40;99.90;;;;;;5207695;28;20488;-73
2023/12/07 12:24:41;;;;;;;6.60;6.07;;;11.40;99.90;;;;;;5208457;28;20025;-73
2023/12/07 12:27:14;;;;;;;6.82;6.13;;;11.50;99.90;;;;;;5208877;28;20049;-73
2023/12/07 12:29:46;;;;;;;8.48;7.55;;;11.50;99.90;;;;;;5208522;28;20033;-73
2023/12/07 12:32:17;;;;;;;10.13;9.10;;;11.50;99.90;;;;;;5208746;28;20025;-73
2023/12/07 12:34:51;;;;;;;9.75;8.00;;;11.40;99.90;;;;;;5208692;28;20025;-73
2023/12/07 12:37:22;;;;;;;9.05;8.25;;;11.50;99.90;;;;;;5208660;28;20369;-78
2023/12/07 12:39:53;;;;;;;7.70;6.93;;;11.40;99.90;;;;;;5208186;28;20045;-72
2023/12/07 12:42:24;;;;;;;12.90;10.15;;;11.40;99.90;;;;;;5208594;28;20029;-74
2023/12/07 12:44:55;;;;;;;14.10;9.48;;;11.40;99.90;;;;;;5208760;28;20100;-74
2023/12/07 12:47:27;;;;;;;12.35;11.25;;;11.40;99.90;;;;;;5208651;28;20028;-76
2023/12/07 12:49:58;;;;;;;11.05;10.05;;;11.40;99.90;;;;;;5208518;28;20389;-73
2023/12/07 12:52:29;;;;;;;13.05;11.60;;;11.30;99.90;;;;;;5208241;28;20025;-77
2023/12/07 12:55:00;;;;;;;11.15;9.65;;;11.40;99.90;;;;;;5208598;28;20049;-73